Lemon Grove, CA (91945)

10:21 AM PDT on March 30, 2015 (GMT -0700)
APRSWXNET Lemon Grove CA US | | Change Station
CLOSE
Current Station
Personal Weather Station
Location: Lemon Grove, CA
Elevation: 439 ft
Nearby Weather Stations

Elev 439 ft 32.74 °N, 117.03 °W | Updated 38 minutes ago

Clear
Clear
61 °F
Feels Like 61 °F
N
1
Wind Variable Wind from NNE
Gusts 2.0 mph

Today
High -- | Low -- °F
--% Chance of Precip.
Yesterday
High -- | Low -- °F
Precip. -- in
6:38 AM 7:06 PM
Waxing Gibbous, 81% visible
Pressure 30.05 in
Visibility 9.0 miles
Clouds Clear
Dew Point 54 °F
Humidity 79%
Rainfall in
Snow Depth Not available.
UV 5 out of 12
Pollen 9.60 out of 12
Air Quality Not available.
Flu Activity Not available.
METAR KSEE 301655Z AUTO 00000KT 9SM CLR 19/11 A3005 RMK AO2

More Conditions Fewer Conditions

Pressure 30.05 in
Visibility 9.0 miles
Clouds Clear
Dew Point 54 °F
Humidity 79%
Rainfall in
Snow Depth Not available.
UV 5 out of 12
Pollen 9.60 out of 12
Air Quality Not available.
Flu Activity Not available.
METAR KSEE 301655Z AUTO 00000KT 9SM CLR 19/11 A3005 RMK AO2

More Conditions Fewer Conditions

10-Day Weather Forecast

Almanac

Astronomy

Mar. 30, 2015 Rise Set
Actual Time
Civil Twilight
Nautical Twilight
Astronomical Twilight
Moon
Length of Visible Light
Length of Day
Tomorrow will be .
, % of the Moon is Illuminated

Today's Extremes

State Highs State Lows

Community

WunderPhotos

Upload Photos

1,809,542 photos uploaded!

WunderBlogs® & News

Nearby

Air Quality

  Air Quality AQ Index Pollutant
Not available.

Snow Depth

Station Depth Elevation

Earthquake Activity

City Distance Mag. Time & Date
Minimum magnitude displayed is 2.5.

Coastal Water Temperatures

Place Temperature

Stations

Nearby Weather Stations

Station Location Temp. Windchill Dew Point Humidity Wind Precip. Elev Updated Type